createdAt,value
2022-09-01T00:00:03.995Z,96817.97
2022-09-01T00:02:35.793Z,96821.56
2022-09-01T00:05:06.586Z,96826.81
2022-09-01T00:10:06.389Z,96818.22
2022-09-01T00:12:34.084Z,96815.47
2022-09-01T00:15:01.210Z,96808.53
2022-09-01T00:17:30.101Z,96818.50
2022-09-01T00:19:57.203Z,96811.47
2022-09-01T00:22:24.560Z,96820.72
2022-09-01T00:24:52.379Z,96808.34
2022-09-01T00:27:21.045Z,96822.13
2022-09-01T00:29:56.452Z,96820.91
2022-09-01T00:32:23.606Z,96809.53
2022-09-01T00:34:50.684Z,96816.44
2022-09-01T00:37:17.818Z,96811.44
2022-09-01T00:39:44.958Z,96811.84
2022-09-01T00:42:12.227Z,96817.81
2022-09-01T00:44:39.429Z,96819.03
2022-09-01T00:47:09.863Z,96812.31
2022-09-01T00:49:41.608Z,96795.63
2022-09-01T00:52:15.090Z,96811.97
2022-09-01T00:54:46.642Z,96814.28
2022-09-01T00:57:15.626Z,96814.53
2022-09-01T00:59:49.786Z,96811.91
2022-09-01T01:02:17.044Z,96807.94
2022-09-01T01:04:44.542Z,96804.25
2022-09-01T01:07:12.710Z,96801.06
2022-09-01T01:09:43.991Z,96804.66
2022-09-01T01:12:13.980Z,96799.41
2022-09-01T01:14:45.982Z,96800.19
2022-09-01T01:17:13.671Z,96795.22
2022-09-01T01:20:03.928Z,96797.88
2022-09-01T01:22:59.374Z,96794.94
2022-09-01T01:25:26.698Z,96793.13
2022-09-01T01:28:06.981Z,96805.09
2022-09-01T01:30:37.121Z,96803.88
2022-09-01T01:33:06.490Z,96801.63
2022-09-01T01:35:35.111Z,96775.72
2022-09-01T01:38:08.169Z,96802.03
2022-09-01T01:40:37.868Z,96808.41
2022-09-01T01:43:05.672Z,96800.06
2022-09-01T01:45:33.813Z,96808.94
2022-09-01T01:48:09.512Z,96776.63
2022-09-01T01:50:38.158Z,96806.59
2022-09-01T01:53:11.300Z,96797.72
2022-09-01T01:55:42.007Z,96789.16
2022-09-01T01:58:12.346Z,96781.25
2022-09-01T02:00:44.792Z,96793.19
2022-09-01T02:03:13.073Z,96789.00
2022-09-01T02:05:40.537Z,96779.47
2022-09-01T02:08:10.536Z,96778.06
2022-09-01T02:10:44.325Z,96773.88
2022-09-01T02:13:16.600Z,96776.38
2022-09-01T02:15:47.167Z,96787.06
2022-09-01T02:18:19.760Z,96783.84
2022-09-01T02:20:49.556Z,96784.53
2022-09-01T02:23:23.590Z,96786.16
2022-09-01T02:26:14.989Z,96786.06
2022-09-01T02:28:43.317Z,96785.09
2022-09-01T02:31:12.214Z,96783.06
2022-09-01T02:33:40.726Z,96792.19
2022-09-01T02:36:14.347Z,96785.28
2022-09-01T02:38:46.793Z,96794.28
2022-09-01T02:41:20.544Z,96786.91
2022-09-01T02:43:48.117Z,96780.78
2022-09-01T02:46:17.400Z,96778.66
2022-09-01T02:48:46.383Z,96776.91
2022-09-01T02:51:16.885Z,96772.97
2022-09-01T02:53:47.242Z,96755.16
2022-09-01T02:56:14.420Z,96752.72
2022-09-01T02:58:46.760Z,96758.38
2022-09-01T03:01:25.102Z,96757.56
2022-09-01T03:03:57.621Z,96751.75
2022-09-01T03:06:25.239Z,96762.78
2022-09-01T03:08:55.583Z,96768.25
2022-09-01T03:11:24.750Z,96781.00
2022-09-01T03:13:53.223Z,96780.69
2022-09-01T03:16:22.654Z,96785.97
2022-09-01T03:18:51.223Z,96789.00
2022-09-01T03:21:20.627Z,96792.75
2022-09-01T03:23:49.300Z,96796.78
2022-09-01T03:26:19.559Z,96780.28
2022-09-01T03:28:48.179Z,96787.34
2022-09-01T03:31:15.893Z,96791.44
2022-09-01T03:33:43.070Z,96794.22
2022-09-01T03:36:20.812Z,96786.00
2022-09-01T03:38:49.907Z,96795.81
2022-09-01T03:41:25.223Z,96799.41
2022-09-01T03:43:58.343Z,96790.81
2022-09-01T03:46:36.454Z,96794.31
2022-09-01T03:49:07.354Z,96796.69
2022-09-01T03:51:39.984Z,96804.75
2022-09-01T03:54:09.182Z,96800.94
2022-09-01T03:56:36.558Z,96797.06
2022-09-01T03:59:04.091Z,96808.34
2022-09-01T04:01:34.942Z,96805.19
2022-09-01T04:04:03.378Z,96802.75
2022-09-01T04:06:32.397Z,96802.03
2022-09-01T04:09:03.508Z,96802.19
2022-09-01T04:11:35.162Z,96801.13
2022-09-01T04:14:03.314Z,96797.81
2022-09-01T04:16:54.137Z,96810.94
2022-09-01T04:19:28.512Z,96810.28
2022-09-01T04:22:00.602Z,96807.94
2022-09-01T04:24:34.168Z,96823.31
2022-09-01T04:27:03.513Z,96813.78
2022-09-01T04:29:31.956Z,96813.25
2022-09-01T04:32:04.020Z,96806.88
2022-09-01T04:34:38.344Z,96807.03
2022-09-01T04:37:15.146Z,96808.41
2022-09-01T04:39:53.660Z,96813.25
2022-09-01T04:42:24.331Z,96799.38
2022-09-01T04:44:54.123Z,96802.00
2022-09-01T04:47:31.722Z,96803.41
2022-09-01T04:50:14.474Z,96795.19
2022-09-01T04:52:45.784Z,96794.75
2022-09-01T04:55:30.014Z,96798.66
2022-09-01T04:58:01.238Z,96799.00
2022-09-01T05:00:32.739Z,96805.59
2022-09-01T05:03:06.407Z,96807.38
2022-09-01T05:05:54.393Z,96812.00
2022-09-01T05:08:24.733Z,96805.31
2022-09-01T05:10:57.102Z,96804.31
2022-09-01T05:13:59.561Z,96810.63
2022-09-01T05:16:28.137Z,96807.09
2022-09-01T05:18:58.125Z,96804.78
2022-09-01T05:21:31.700Z,96801.16
2022-09-01T05:24:01.643Z,96792.28
2022-09-01T05:26:31.885Z,96794.72
2022-09-01T05:29:05.058Z,96797.88
2022-09-01T05:31:38.203Z,96801.78
2022-09-01T05:34:10.688Z,96793.97
2022-09-01T05:36:46.325Z,96800.78
2022-09-01T05:39:13.721Z,96807.75
2022-09-01T05:41:41.393Z,96806.25
2022-09-01T05:44:10.050Z,96808.06
2022-09-01T05:46:39.235Z,96809.34
2022-09-01T05:49:13.834Z,96809.72
2022-09-01T05:51:45.858Z,96797.28
2022-09-01T05:54:23.410Z,96806.03
2022-09-01T05:56:50.904Z,96802.72
2022-09-01T05:59:25.339Z,96745.38
2022-09-01T06:02:16.346Z,96815.22
2022-09-01T06:04:44.439Z,96819.44
2022-09-01T06:07:25.296Z,96812.53
2022-09-01T06:09:54.439Z,96812.22
2022-09-01T06:12:25.078Z,96814.72
2022-09-01T06:14:56.022Z,96816.00
2022-09-01T06:17:26.270Z,96815.53
2022-09-01T06:19:58.794Z,96805.22
2022-09-01T06:22:28.633Z,96812.63
2022-09-01T06:25:02.449Z,96793.59
2022-09-01T06:27:44.534Z,96815.78
2022-09-01T06:30:23.519Z,96811.84
2022-09-01T06:33:09.505Z,96801.72
2022-09-01T06:35:39.080Z,96807.69
2022-09-01T06:38:07.315Z,96805.84
2022-09-01T06:40:45.481Z,96790.63
2022-09-01T06:43:19.780Z,96805.69
2022-09-01T06:45:55.117Z,96803.81
2022-09-01T06:48:26.442Z,96800.78
2022-09-01T06:51:21.034Z,96802.09
2022-09-01T06:53:57.044Z,96802.88
2022-09-01T06:56:33.663Z,96792.47
2022-09-01T06:59:08.239Z,96806.09
2022-09-01T07:01:39.199Z,96802.91
2022-09-01T07:04:12.890Z,96810.38
2022-09-01T07:07:00.405Z,96803.47
2022-09-01T07:09:38.884Z,96812.25
2022-09-01T07:12:34.311Z,96810.53
2022-09-01T07:17:53.772Z,96807.81
2022-09-01T07:20:31.459Z,96801.16
2022-09-01T07:26:04.329Z,96817.38
2022-09-01T07:28:47.813Z,96809.59
2022-09-01T07:39:56.163Z,96811.97
2022-09-01T07:42:31.493Z,96812.06
2022-09-01T07:49:28.574Z,96812.28
2022-09-01T07:51:51.507Z,96812.78
2022-09-01T07:54:21.476Z,96813.25
2022-09-01T07:56:49.833Z,96815.97
2022-09-01T07:59:20.591Z,96796.84
2022-09-01T08:01:53.813Z,96805.53
2022-09-01T08:04:23.183Z,96803.06
2022-09-01T08:06:52.139Z,96804.28
2022-09-01T08:09:37.128Z,96808.41
2022-09-01T08:12:08.851Z,96809.72
2022-09-01T08:17:57.602Z,96796.72
2022-09-01T08:20:31.512Z,96797.19
2022-09-01T08:23:23.791Z,96789.84
2022-09-01T08:25:51.832Z,96792.63
2022-09-01T08:28:26.491Z,96794.97
2022-09-01T08:30:57.028Z,96799.59
2022-09-01T08:33:26.508Z,96792.63
2022-09-01T08:35:55.479Z,96795.78
2022-09-01T08:38:26.258Z,96791.22
2022-09-01T08:40:58.557Z,96798.84
2022-09-01T08:43:37.445Z,96795.81
2022-09-01T08:46:23.007Z,96792.25
2022-09-01T08:52:17.917Z,96792.38
2022-09-01T08:54:57.214Z,96793.03
2022-09-01T08:57:37.441Z,96788.94
2022-09-01T09:00:26.100Z,96776.06
2022-09-01T09:03:02.109Z,96770.31
2022-09-01T09:05:53.576Z,96776.50
2022-09-01T09:08:36.215Z,96729.97
2022-09-01T09:11:22.914Z,96758.44
2022-09-01T09:14:15.688Z,96766.22
2022-09-01T09:16:51.628Z,96760.91
2022-09-01T09:19:29.388Z,96748.47
2022-09-01T09:21:59.441Z,96753.69
2022-09-01T09:24:52.578Z,96756.56
2022-09-01T09:27:34.607Z,96749.34
2022-09-01T09:30:14.129Z,96752.28
2022-09-01T09:35:55.543Z,96752.19
2022-09-01T09:38:33.590Z,96738.97
2022-09-01T09:41:17.702Z,96746.31
2022-09-01T09:44:05.970Z,96738.00
2022-09-01T09:46:33.042Z,96738.22
2022-09-01T09:49:34.325Z,96727.13
2022-09-01T09:52:09.795Z,96734.22
2022-09-01T09:54:59.049Z,96733.50
2022-09-01T09:57:26.992Z,96729.19
2022-09-01T10:00:01.709Z,96720.88
2022-09-01T10:02:34.081Z,96725.59
2022-09-01T10:05:26.646Z,96719.38
2022-09-01T10:07:57.502Z,96717.19
2022-09-01T10:10:57.374Z,96720.00
2022-09-01T10:13:33.036Z,96711.88
2022-09-01T10:16:05.588Z,96713.13
2022-09-01T10:18:46.684Z,96705.06
2022-09-01T10:21:22.938Z,96710.78
2022-09-01T10:23:50.540Z,96710.22
2022-09-01T10:26:25.411Z,96707.47
2022-09-01T10:29:00.328Z,96705.47
2022-09-01T10:31:32.853Z,96701.25
2022-09-01T10:34:05.569Z,96707.53
2022-09-01T10:36:35.815Z,96716.63
2022-09-01T10:39:08.819Z,96707.22
2022-09-01T10:41:59.833Z,96717.78
2022-09-01T10:44:31.303Z,96696.97
2022-09-01T10:47:13.607Z,96704.97
2022-09-01T10:49:47.524Z,96701.22
2022-09-01T10:52:43.650Z,96704.25
2022-09-01T10:55:32.641Z,96699.25
2022-09-01T11:01:49.922Z,96691.66
2022-09-01T11:04:18.526Z,96688.25
2022-09-01T11:07:11.734Z,96694.94
2022-09-01T11:09:36.004Z,96684.16
2022-09-01T11:12:38.974Z,96678.19
2022-09-01T11:15:18.544Z,96675.75
2022-09-01T11:17:53.769Z,96677.34
2022-09-01T11:20:34.877Z,96678.75
2022-09-01T11:23:06.450Z,96660.88
2022-09-01T11:25:41.134Z,96669.72
2022-09-01T11:28:18.055Z,96665.44
2022-09-01T11:30:53.260Z,96671.84
2022-09-01T11:33:34.681Z,96683.03
2022-09-01T11:36:12.915Z,96666.66
2022-09-01T11:38:50.382Z,96666.97
2022-09-01T11:41:36.285Z,96670.56
2022-09-01T11:44:31.318Z,96664.47
2022-09-01T11:47:14.565Z,96664.19
2022-09-01T11:49:51.531Z,96657.19
2022-09-01T11:52:21.514Z,96662.31
2022-09-01T11:54:50.041Z,96644.50
2022-09-01T11:57:38.646Z,96655.72
2022-09-01T12:00:10.391Z,96656.56
2022-09-01T12:02:50.638Z,96661.41
2022-09-01T12:05:38.819Z,96656.38
2022-09-01T12:08:24.202Z,96659.75
2022-09-01T12:10:53.058Z,96652.34
2022-09-01T12:13:21.866Z,96661.03
2022-09-01T12:16:16.871Z,96650.50
2022-09-01T12:18:49.029Z,96654.50
2022-09-01T12:21:30.864Z,96656.25
2022-09-01T12:24:34.491Z,96649.59
2022-09-01T12:27:02.213Z,96647.34
2022-09-01T12:29:32.463Z,96638.28
2022-09-01T12:32:01.586Z,96651.91
2022-09-01T12:35:00.006Z,96648.41
2022-09-01T12:37:27.845Z,96640.56
2022-09-01T12:39:57.719Z,96642.81
2022-09-01T12:42:40.774Z,96642.38
2022-09-01T12:45:10.721Z,96637.06
2022-09-01T12:47:37.893Z,96639.72
2022-09-01T12:50:13.804Z,96638.72
2022-09-01T12:52:48.575Z,96631.97
2022-09-01T12:58:09.756Z,96624.88
2022-09-01T13:00:58.695Z,96631.06
2022-09-01T13:03:27.824Z,96627.56
2022-09-01T13:05:56.415Z,96627.31
2022-09-01T13:08:30.550Z,96627.16
2022-09-01T13:11:07.648Z,96630.22
2022-09-01T13:13:38.324Z,96620.78
2022-09-01T13:16:13.110Z,96625.16
2022-09-01T13:21:32.342Z,96622.00
2022-09-01T13:23:59.459Z,96625.72
2022-09-01T13:26:29.855Z,96616.59
2022-09-01T13:28:57.903Z,96617.59
2022-09-01T13:31:30.116Z,96611.97
2022-09-01T13:34:22.698Z,96622.56
2022-09-01T13:36:51.132Z,96615.53
2022-09-01T13:39:20.428Z,96612.75
2022-09-01T13:41:48.832Z,96574.72
2022-09-01T13:44:17.473Z,96614.59
2022-09-01T13:47:28.300Z,96608.69
2022-09-01T13:52:21.736Z,96603.94
2022-09-01T13:54:48.912Z,96610.91
2022-09-01T13:57:19.355Z,96608.38
2022-09-01T13:59:47.022Z,96597.91
2022-09-01T14:02:14.556Z,96604.25
2022-09-01T14:04:41.575Z,96604.03
2022-09-01T14:07:08.825Z,96606.09
2022-09-01T16:24:02.672Z,96607.69
2022-09-01T16:26:35.073Z,96610.59
2022-09-01T16:29:12.970Z,96590.81
2022-09-01T16:31:42.578Z,96597.69
2022-09-01T16:34:15.182Z,96604.78
2022-09-01T16:37:20.409Z,96604.34
2022-09-01T16:40:10.347Z,96616.50
2022-09-01T16:42:48.872Z,96616.44
2022-09-01T16:45:25.324Z,96622.84
2022-09-01T16:48:13.162Z,96620.75
2022-09-01T16:50:57.421Z,96625.56
2022-09-01T16:54:06.453Z,96630.34
2022-09-01T16:57:01.986Z,96639.31
2022-09-01T16:59:44.396Z,96641.03
2022-09-01T17:02:32.383Z,96647.34
2022-09-01T17:05:28.256Z,96642.97
2022-09-01T17:08:16.083Z,96659.31
2022-09-01T17:11:18.692Z,96658.06
2022-09-01T17:13:56.369Z,96658.84
2022-09-01T17:16:39.608Z,96662.53
2022-09-01T17:19:10.661Z,96662.00
2022-09-01T17:21:52.875Z,96660.72
2022-09-01T17:24:39.110Z,96666.84
2022-09-01T17:27:17.961Z,96671.72
2022-09-01T17:29:51.950Z,96689.97
2022-09-01T17:32:53.091Z,96693.13
2022-09-01T17:35:48.754Z,96695.88
2022-09-01T17:38:31.250Z,96695.47
2022-09-01T17:41:08.096Z,96701.56
2022-09-01T17:43:57.440Z,96699.72
2022-09-01T17:46:46.282Z,96698.03
2022-09-01T17:49:23.343Z,96709.44
2022-09-01T17:52:20.882Z,96702.88
2022-09-01T17:55:10.605Z,96716.97
2022-09-01T17:57:47.137Z,96710.69
2022-09-01T18:00:24.903Z,96727.13
2022-09-01T18:03:19.244Z,96718.84
2022-09-01T18:05:55.333Z,96733.41
2022-09-01T18:08:42.413Z,96729.22
2022-09-01T18:11:24.438Z,96732.72
2022-09-01T18:14:39.507Z,96741.91
2022-09-01T18:17:26.137Z,96747.72
2022-09-01T18:20:10.247Z,96742.03
2022-09-01T18:23:18.150Z,96738.41
2022-09-01T18:25:56.274Z,96750.41
2022-09-01T18:28:24.964Z,96760.22
2022-09-01T18:31:15.214Z,96752.31
2022-09-01T18:34:09.032Z,96756.44
2022-09-01T18:37:13.788Z,96758.78
2022-09-01T18:40:11.793Z,96766.75
2022-09-01T18:43:14.093Z,96752.16
2022-09-01T18:46:10.864Z,96759.00
2022-09-01T18:48:52.525Z,96758.50
2022-09-01T18:51:45.450Z,96766.44
2022-09-01T18:54:21.045Z,96761.28
2022-09-01T18:57:01.631Z,96762.63
2022-09-01T18:59:36.627Z,96764.44
2022-09-01T19:02:25.865Z,96763.78
2022-09-01T19:05:04.217Z,96770.75
2022-09-01T19:07:32.171Z,96778.84
2022-09-01T19:10:38.933Z,96774.34
2022-09-01T19:13:29.004Z,96790.44
2022-09-01T19:16:05.812Z,96788.41
2022-09-01T19:18:45.689Z,96775.81
2022-09-01T19:21:21.923Z,96780.69
2022-09-01T19:24:15.706Z,96783.91
2022-09-01T19:26:50.792Z,96795.78
2022-09-01T19:29:30.900Z,96792.47
2022-09-01T19:32:03.473Z,96780.59
2022-09-01T19:34:36.523Z,96787.75
2022-09-01T19:37:05.185Z,96786.25
2022-09-01T19:39:40.769Z,96768.69
2022-09-01T19:42:30.572Z,96789.72
2022-09-01T19:45:43.723Z,96791.84
2022-09-01T19:48:23.221Z,96794.28
2022-09-01T19:51:01.360Z,96783.03
2022-09-01T19:53:37.396Z,96789.19
2022-09-01T19:56:17.247Z,96786.91
2022-09-01T19:58:53.634Z,96808.25
2022-09-01T20:01:46.531Z,96803.44
2022-09-01T20:04:42.287Z,96817.34
2022-09-01T20:07:32.550Z,96816.91
2022-09-01T20:10:19.631Z,96825.50
2022-09-01T20:13:09.140Z,96809.47
2022-09-01T20:15:47.215Z,96810.31
2022-09-01T20:18:27.275Z,96815.13
2022-09-01T20:20:58.166Z,96823.75
2022-09-01T20:23:45.854Z,96813.59
2022-09-01T20:26:23.442Z,96821.50
2022-09-01T20:28:55.900Z,96816.28
2022-09-01T20:31:49.365Z,96826.81
2022-09-01T20:34:34.384Z,96833.06
2022-09-01T20:37:13.973Z,96814.94
2022-09-01T20:40:04.605Z,96816.72
2022-09-01T20:42:54.573Z,96824.44
2022-09-01T20:45:24.598Z,96820.66
2022-09-01T20:47:58.061Z,96822.66
2022-09-01T20:50:34.083Z,96818.53
2022-09-01T20:53:30.324Z,96827.16
2022-09-01T20:56:19.823Z,96829.38
2022-09-01T20:59:01.516Z,96826.03
2022-09-01T21:01:57.917Z,96828.44
2022-09-01T21:04:37.540Z,96832.53
2022-09-01T21:07:43.070Z,96833.53
2022-09-01T21:10:27.099Z,96840.16
2022-09-01T21:13:09.673Z,96840.00
2022-09-01T21:15:48.470Z,96841.88
2022-09-01T21:18:54.191Z,96837.22
2022-09-01T21:21:21.246Z,96844.75
2022-09-01T21:23:48.174Z,96838.72
2022-09-01T21:26:15.810Z,96851.38
2022-09-01T21:28:48.038Z,96846.13
2022-09-01T21:31:15.436Z,96849.31
2022-09-01T21:33:42.470Z,96864.38
2022-09-01T21:36:10.034Z,96865.19
2022-09-01T21:38:37.561Z,96864.66
2022-09-01T21:41:09.670Z,96864.94
2022-09-01T21:43:41.765Z,96864.09
2022-09-01T21:46:10.324Z,96862.53
2022-09-01T21:48:37.663Z,96866.63
2022-09-01T21:51:07.968Z,96861.88
2022-09-01T21:53:35.208Z,96859.22
2022-09-01T21:56:02.769Z,96863.50
2022-09-01T21:58:30.167Z,96853.94
2022-09-01T22:00:58.666Z,96863.22
2022-09-01T22:03:25.893Z,96868.28
2022-09-01T22:05:53.435Z,96862.84
2022-09-01T22:08:21.218Z,96863.31
2022-09-01T22:10:53.043Z,96860.19
2022-09-01T22:13:23.311Z,96861.28
2022-09-01T22:15:53.522Z,96863.03
2022-09-01T22:18:22.834Z,96859.47
2022-09-01T22:20:50.277Z,96847.19
2022-09-01T22:23:18.133Z,96851.53
2022-09-01T22:25:47.014Z,96866.41
2022-09-01T22:28:14.406Z,96845.50
2022-09-01T22:30:47.559Z,96844.19
2022-09-01T22:33:16.098Z,96849.56
2022-09-01T22:35:51.021Z,96837.94
2022-09-01T22:38:21.363Z,96835.41
2022-09-01T22:40:56.753Z,96838.28
2022-09-01T22:43:24.956Z,96835.53
2022-09-01T22:45:53.356Z,96838.25
2022-09-01T22:48:23.766Z,96826.41
2022-09-01T22:50:51.851Z,96823.16
2022-09-01T22:53:21.889Z,96828.19
2022-09-01T22:55:51.792Z,96825.09
2022-09-01T22:58:20.139Z,96826.09
2022-09-01T23:00:55.821Z,96826.94
2022-09-01T23:03:23.675Z,96828.88
2022-09-01T23:06:04.366Z,96824.19
2022-09-01T23:08:31.910Z,96827.81
2022-09-01T23:10:59.675Z,96819.63
2022-09-01T23:13:28.458Z,96827.91
2022-09-01T23:15:57.471Z,96824.66
2022-09-01T23:18:26.353Z,96831.59
2022-09-01T23:20:54.211Z,96829.00
2022-09-01T23:23:21.726Z,96825.69
2022-09-01T23:25:52.963Z,96831.41
2022-09-01T23:28:21.282Z,96828.50
2022-09-01T23:30:50.573Z,96817.53
2022-09-01T23:33:19.908Z,96825.72
2022-09-01T23:35:50.563Z,96824.34
2022-09-01T23:38:19.662Z,96828.00
2022-09-01T23:40:53.096Z,96817.72
2022-09-01T23:43:24.201Z,96821.16
2022-09-01T23:45:53.958Z,96818.06
2022-09-01T23:48:22.491Z,96813.19
2022-09-01T23:50:56.154Z,96819.81
2022-09-01T23:53:29.075Z,96814.59
2022-09-01T23:55:59.401Z,96807.72
2022-09-01T23:58:28.217Z,96819.66
